Time;durP1;ratioP1;P1;durP2;ratioP2;P2;SDS_P1;SDS_P2;PMS_P1;PMS_P2;Temp;Humidity;BMP_temperature;BMP_pressure;BME280_temperature;BME280_humidity;BME280_pressure;Samples;Min_cycle;Max_cycle;Signal;HPM_P1;HPM_P2
2022/11/22 00:01:00;;;;;;;64.77;25.27;;;;;;;;;;5034654;28;20669;-41
2022/11/22 00:03:27;;;;;;;65.73;23.13;;;;;;;;;;5035419;28;20495;-40
2022/11/22 00:05:54;;;;;;;44.17;19.20;;;;;;;;;;5034733;28;20625;-40
2022/11/22 00:08:21;;;;;;;80.60;26.13;;;;;;;;;;5034628;28;20613;-40
2022/11/22 00:10:49;;;;;;;66.43;23.40;;;;;;;;;;5035254;28;20820;-39
2022/11/22 00:13:17;;;;;;;51.20;21.90;;;;;;;;;;5034765;28;20200;-39
2022/11/22 00:15:44;;;;;;;68.03;26.97;;;;;;;;;;5035200;28;20638;-40
2022/11/22 00:18:11;;;;;;;55.83;22.13;;;;;;;;;;5035008;28;20308;-39
2022/11/22 00:20:38;;;;;;;60.87;23.90;;;;;;;;;;5035152;28;20215;-39
2022/11/22 00:23:05;;;;;;;146.40;104.80;;;;;;;;;;5034972;28;20208;-41
2022/11/22 00:25:32;;;;;;;154.63;69.23;;;;;;;;;;5035229;28;20200;-39
2022/11/22 00:27:59;;;;;;;141.57;44.00;;;;;;;;;;5035143;28;20299;-40
2022/11/22 00:30:26;;;;;;;131.87;40.83;;;;;;;;;;5035279;28;20212;-39
2022/11/22 00:32:53;;;;;;;115.93;37.40;;;;;;;;;;5035161;28;20197;-40
2022/11/22 00:35:20;;;;;;;137.97;42.37;;;;;;;;;;5034937;28;20222;-39
2022/11/22 00:37:47;;;;;;;103.40;36.63;;;;;;;;;;5035343;28;20290;-39
2022/11/22 00:40:14;;;;;;;78.50;29.50;;;;;;;;;;5035121;28;20533;-40
2022/11/22 00:42:41;;;;;;;80.60;30.13;;;;;;;;;;5034737;28;20258;-40
2022/11/22 00:45:08;;;;;;;78.30;28.60;;;;;;;;;;5034981;28;20262;-40
2022/11/22 00:47:35;;;;;;;69.57;25.63;;;;;;;;;;5034708;28;20231;-40
2022/11/22 00:50:04;;;;;;;75.53;27.00;;;;;;;;;;5035039;28;20215;-39
2022/11/22 00:52:31;;;;;;;163.67;56.20;;;;;;;;;;5034691;28;20212;-41
2022/11/22 00:54:58;;;;;;;108.63;66.57;;;;;;;;;;5035052;28;20583;-39
2022/11/22 00:57:25;;;;;;;119.80;45.77;;;;;;;;;;5033996;28;20204;-40
2022/11/22 00:59:51;;;;;;;129.47;37.77;;;;;;;;;;5034960;28;20225;-40
2022/11/22 01:02:18;;;;;;;78.97;26.53;;;;;;;;;;5034611;28;20206;-39
2022/11/22 01:04:46;;;;;;;90.30;29.80;;;;;;;;;;5034461;28;20229;-39
2022/11/22 01:07:13;;;;;;;83.73;28.70;;;;;;;;;;5036398;28;20200;-40
2022/11/22 01:09:40;;;;;;;79.67;30.13;;;;;;;;;;5039033;28;20228;-40
2022/11/22 01:12:07;;;;;;;50.47;21.57;;;;;;;;;;5038690;28;20200;-40
2022/11/22 01:14:34;;;;;;;38.70;18.23;;;;;;;;;;5039455;28;20223;-40
2022/11/22 01:17:01;;;;;;;85.87;27.27;;;;;;;;;;5038662;28;20521;-40
2022/11/22 01:19:28;;;;;;;102.13;29.80;;;;;;;;;;5038088;28;20224;-40
2022/11/22 01:21:56;;;;;;;169.60;64.27;;;;;;;;;;5038877;28;20514;-39
2022/11/22 01:24:22;;;;;;;282.53;211.97;;;;;;;;;;5038471;28;20752;-40
2022/11/22 01:26:50;;;;;;;113.03;57.00;;;;;;;;;;5038727;28;20201;-40
2022/11/22 01:29:16;;;;;;;115.17;37.20;;;;;;;;;;5038194;28;20211;-40
2022/11/22 01:31:43;;;;;;;69.23;24.63;;;;;;;;;;5038355;28;20200;-40
2022/11/22 01:34:10;;;;;;;92.57;31.20;;;;;;;;;;5038805;28;20201;-41
2022/11/22 01:36:37;;;;;;;110.97;35.03;;;;;;;;;;5038154;28;20266;-40
2022/11/22 01:39:04;;;;;;;91.53;30.83;;;;;;;;;;5037348;28;20564;-41
2022/11/22 01:41:31;;;;;;;62.93;24.17;;;;;;;;;;5038345;28;20205;-40
2022/11/22 01:44:20;;;;;;;69.47;25.87;;;;;;;;;;5037940;28;20201;-43
2022/11/22 01:46:50;;;;;;;93.30;32.33;;;;;;;;;;5037926;28;20266;-41
2022/11/22 01:49:23;;;;;;;99.43;32.00;;;;;;;;;;5049994;28;20262;-42
2022/11/22 01:51:53;;;;;;;205.53;79.27;;;;;;;;;;5057692;28;20188;-41
2022/11/22 01:54:23;;;;;;;318.87;87.13;;;;;;;;;;5057277;28;20203;-40
2022/11/22 01:56:54;;;;;;;165.87;109.40;;;;;;;;;;5057647;28;20207;-42
2022/11/22 01:59:22;;;;;;;155.47;63.13;;;;;;;;;;5056646;28;20224;-41
2022/11/22 02:01:49;;;;;;;100.03;35.87;;;;;;;;;;5057841;28;20208;-40
2022/11/22 02:04:17;;;;;;;123.27;37.73;;;;;;;;;;5056916;28;20294;-40
2022/11/22 02:06:52;;;;;;;90.90;33.30;;;;;;;;;;5057880;28;20204;-44
2022/11/22 02:09:19;;;;;;;142.13;47.73;;;;;;;;;;5057777;28;20243;-40
2022/11/22 02:11:49;;;;;;;93.17;33.53;;;;;;;;;;5056219;28;20200;-41
2022/11/22 02:14:19;;;;;;;100.53;33.57;;;;;;;;;;5056477;28;20204;-40
2022/11/22 02:16:47;;;;;;;87.60;31.37;;;;;;;;;;5055690;28;20258;-42
2022/11/22 02:19:22;;;;;;;65.23;25.43;;;;;;;;;;5056951;28;20227;-40
2022/11/22 02:21:54;;;;;;;90.47;31.57;;;;;;;;;;5058032;28;20288;-42
2022/11/22 02:24:25;;;;;;;256.53;97.03;;;;;;;;;;5056420;28;20204;-40
2022/11/22 02:26:53;;;;;;;206.23;149.60;;;;;;;;;;5056725;28;20219;-40
2022/11/22 02:29:19;;;;;;;145.17;69.10;;;;;;;;;;5057069;28;20299;-40
2022/11/22 02:31:47;;;;;;;188.50;48.20;;;;;;;;;;5055567;28;20207;-40
2022/11/22 02:34:13;;;;;;;159.00;43.70;;;;;;;;;;5057429;28;20580;-40
2022/11/22 02:36:52;;;;;;;118.40;34.23;;;;;;;;;;5056835;28;20629;-40
2022/11/22 02:39:22;;;;;;;106.53;33.20;;;;;;;;;;5057115;28;20219;-40
2022/11/22 02:41:50;;;;;;;60.40;23.10;;;;;;;;;;5057322;28;20196;-42
2022/11/22 02:44:18;;;;;;;56.17;22.67;;;;;;;;;;5055727;28;20204;-39
2022/11/22 02:46:51;;;;;;;35.77;17.60;;;;;;;;;;5056084;28;20200;-39
2022/11/22 02:49:20;;;;;;;59.97;22.37;;;;;;;;;;5056978;28;20251;-39
2022/11/22 02:51:47;;;;;;;70.87;26.07;;;;;;;;;;5056930;28;20200;-39
2022/11/22 02:54:14;;;;;;;167.60;63.93;;;;;;;;;;5057715;28;20282;-39
2022/11/22 02:56:41;;;;;;;350.17;218.40;;;;;;;;;;5056707;28;20208;-39
2022/11/22 02:59:09;;;;;;;160.23;86.97;;;;;;;;;;5055756;28;20228;-43
2022/11/22 03:01:36;;;;;;;193.90;53.50;;;;;;;;;;5056742;28;20640;-39
2022/11/22 03:04:03;;;;;;;95.00;32.33;;;;;;;;;;5056904;28;20207;-39
2022/11/22 03:06:31;;;;;;;117.30;35.07;;;;;;;;;;5056174;28;20234;-41
2022/11/22 03:08:57;;;;;;;72.97;27.47;;;;;;;;;;5055833;28;20551;-39
2022/11/22 03:11:25;;;;;;;60.10;22.40;;;;;;;;;;5056512;28;20641;-39
2022/11/22 03:13:51;;;;;;;63.63;26.23;;;;;;;;;;5054987;28;20200;-40
2022/11/22 03:16:19;;;;;;;59.30;25.43;;;;;;;;;;5056218;28;20207;-39
2022/11/22 03:18:45;;;;;;;46.27;21.20;;;;;;;;;;5056320;28;20216;-40
2022/11/22 03:21:12;;;;;;;37.53;19.23;;;;;;;;;;5056397;28;20199;-39
2022/11/22 03:23:39;;;;;;;33.13;16.60;;;;;;;;;;5056013;28;20204;-39
2022/11/22 03:26:10;;;;;;;77.80;38.40;;;;;;;;;;5056157;28;20219;-39
2022/11/22 03:28:37;;;;;;;77.53;41.93;;;;;;;;;;5055946;28;20204;-39
2022/11/22 03:31:05;;;;;;;52.20;23.73;;;;;;;;;;5054918;28;20644;-40
2022/11/22 03:33:33;;;;;;;55.13;21.53;;;;;;;;;;5056098;28;20204;-40
2022/11/22 03:36:00;;;;;;;47.57;20.37;;;;;;;;;;5055587;28;20537;-41
2022/11/22 03:38:27;;;;;;;54.90;22.63;;;;;;;;;;5055342;28;20244;-39
2022/11/22 03:40:54;;;;;;;38.30;18.27;;;;;;;;;;5055740;28;20279;-41
2022/11/22 03:43:21;;;;;;;46.97;20.03;;;;;;;;;;5054549;28;20208;-40
2022/11/22 03:45:48;;;;;;;37.07;18.13;;;;;;;;;;5055908;28;20212;-40
2022/11/22 03:48:15;;;;;;;34.73;17.77;;;;;;;;;;5055954;28;20208;-40
2022/11/22 03:50:42;;;;;;;39.13;17.50;;;;;;;;;;5055418;28;20211;-41
2022/11/22 03:53:10;;;;;;;61.50;27.10;;;;;;;;;;5055898;28;20200;-40
2022/11/22 03:55:37;;;;;;;43.97;22.43;;;;;;;;;;5055736;28;20211;-41
2022/11/22 03:58:04;;;;;;;50.37;27.27;;;;;;;;;;5055601;28;20211;-40
2022/11/22 04:00:31;;;;;;;35.37;17.23;;;;;;;;;;5055679;28;20215;-44
2022/11/22 04:02:58;;;;;;;41.40;18.23;;;;;;;;;;5055430;28;20291;-40
2022/11/22 04:05:25;;;;;;;42.50;18.50;;;;;;;;;;5055717;28;20533;-41
2022/11/22 04:07:58;;;;;;;31.27;16.67;;;;;;;;;;5055515;28;20295;-40
2022/11/22 04:10:25;;;;;;;44.53;18.33;;;;;;;;;;5055661;28;20280;-40
2022/11/22 04:12:58;;;;;;;70.70;26.57;;;;;;;;;;5055223;28;20211;-40
2022/11/22 04:15:25;;;;;;;62.63;24.17;;;;;;;;;;5055234;28;20200;-41
2022/11/22 04:17:52;;;;;;;49.83;20.87;;;;;;;;;;5055804;28;20218;-40
2022/11/22 04:23:09;;;;;;;60.40;31.20;;;;;;;;;;5054817;28;20588;-41
2022/11/22 04:25:42;;;;;;;399.23;111.80;;;;;;;;;;5054603;28;20265;-40
2022/11/22 04:28:10;;;;;;;398.50;196.23;;;;;;;;;;5055517;28;20204;-40
2022/11/22 04:33:23;;;;;;;167.60;50.03;;;;;;;;;;5054877;28;20287;-40
2022/11/22 04:35:50;;;;;;;73.67;26.93;;;;;;;;;;5052900;28;20201;-41
2022/11/22 04:38:18;;;;;;;49.00;20.50;;;;;;;;;;5036658;28;20269;-40
2022/11/22 04:40:45;;;;;;;47.17;21.37;;;;;;;;;;5054819;28;20215;-40
2022/11/22 04:46:07;;;;;;;40.17;17.60;;;;;;;;;;5052368;28;20196;-40
2022/11/22 04:48:34;;;;;;;40.13;19.40;;;;;;;;;;5053652;28;20295;-40
2022/11/22 04:53:47;;;;;;;142.30;58.00;;;;;;;;;;5053718;28;20199;-39
2022/11/22 04:56:14;;;;;;;185.97;69.63;;;;;;;;;;5049146;28;20204;-41
2022/11/22 04:58:41;;;;;;;125.23;62.70;;;;;;;;;;5054397;28;20228;-40
2022/11/22 05:01:08;;;;;;;81.23;35.77;;;;;;;;;;5046762;28;20196;-41
2022/11/22 05:03:35;;;;;;;90.60;29.73;;;;;;;;;;5048136;28;20228;-43
2022/11/22 05:06:03;;;;;;;81.83;28.37;;;;;;;;;;5053509;28;20224;-40
2022/11/22 05:08:31;;;;;;;81.23;25.43;;;;;;;;;;5053576;28;20236;-40
2022/11/22 05:10:58;;;;;;;67.17;24.87;;;;;;;;;;5053224;28;20220;-40
2022/11/22 05:13:33;;;;;;;69.73;25.07;;;;;;;;;;5053422;28;20623;-40
2022/11/22 05:16:02;;;;;;;55.53;22.30;;;;;;;;;;5053445;28;20227;-40
2022/11/22 05:18:29;;;;;;;60.10;24.13;;;;;;;;;;5053103;28;20220;-39
2022/11/22 05:20:56;;;;;;;55.70;23.90;;;;;;;;;;5053236;28;20680;-40
2022/11/22 05:26:09;;;;;;;549.27;353.97;;;;;;;;;;5053318;28;20227;-39
2022/11/22 05:28:38;;;;;;;150.13;98.93;;;;;;;;;;5053401;28;20227;-39
2022/11/22 05:31:10;;;;;;;98.40;38.43;;;;;;;;;;5051864;28;20228;-40
2022/11/22 05:33:38;;;;;;;139.80;41.73;;;;;;;;;;5052437;28;20254;-40
2022/11/22 05:36:06;;;;;;;75.50;29.43;;;;;;;;;;5053601;28;20220;-42
2022/11/22 05:38:36;;;;;;;53.33;23.80;;;;;;;;;;5052445;28;20537;-39
2022/11/22 05:41:05;;;;;;;65.80;26.60;;;;;;;;;;5053403;28;20235;-40
2022/11/22 05:43:32;;;;;;;66.00;27.70;;;;;;;;;;5052480;28;20592;-40
2022/11/22 05:46:11;;;;;;;62.60;24.73;;;;;;;;;;5050664;28;20755;-48
2022/11/22 05:48:41;;;;;;;55.17;22.80;;;;;;;;;;5052760;28;20232;-40
2022/11/22 05:51:13;;;;;;;48.23;21.47;;;;;;;;;;5052912;28;20285;-41
2022/11/22 05:53:41;;;;;;;100.97;40.03;;;;;;;;;;5055355;28;20226;-40
2022/11/22 05:56:09;;;;;;;305.43;232.13;;;;;;;;;;5056915;28;20228;-40
2022/11/22 05:58:36;;;;;;;92.40;56.53;;;;;;;;;;5054334;28;20560;-40
2022/11/22 06:01:10;;;;;;;82.23;36.87;;;;;;;;;;5055940;28;20224;-40
2022/11/22 06:03:37;;;;;;;89.70;28.73;;;;;;;;;;5056611;28;20222;-40
2022/11/22 06:06:05;;;;;;;41.70;18.90;;;;;;;;;;5057104;28;20232;-39
2022/11/22 06:08:35;;;;;;;33.87;18.07;;;;;;;;;;5057422;28;20236;-39
2022/11/22 06:11:14;;;;;;;33.37;17.07;;;;;;;;;;5056866;28;20212;-40
2022/11/22 06:13:45;;;;;;;65.97;25.20;;;;;;;;;;5057431;28;20200;-40
2022/11/22 06:16:13;;;;;;;65.43;25.83;;;;;;;;;;5057304;28;20215;-40
2022/11/22 06:18:40;;;;;;;65.70;25.83;;;;;;;;;;5057464;28;20287;-39
2022/11/22 06:21:12;;;;;;;73.47;28.67;;;;;;;;;;5045701;28;20193;-40
2022/11/22 06:23:39;;;;;;;89.40;45.23;;;;;;;;;;5045533;28;20229;-42
2022/11/22 06:26:11;;;;;;;102.23;76.13;;;;;;;;;;5044976;28;20530;-40
2022/11/22 06:28:39;;;;;;;84.80;39.63;;;;;;;;;;5045487;28;20185;-40
2022/11/22 06:31:16;;;;;;;74.20;27.33;;;;;;;;;;5045787;28;20200;-40
2022/11/22 06:33:43;;;;;;;67.83;25.60;;;;;;;;;;5048987;28;20207;-39
2022/11/22 06:36:16;;;;;;;51.17;21.60;;;;;;;;;;5057131;28;20262;-39
2022/11/22 06:38:43;;;;;;;44.73;20.43;;;;;;;;;;5057632;28;20558;-40
2022/11/22 06:41:13;;;;;;;48.10;21.77;;;;;;;;;;5057106;28;20224;-39
2022/11/22 06:43:41;;;;;;;43.87;20.47;;;;;;;;;;5058434;28;20204;-39
2022/11/22 06:46:15;;;;;;;43.37;21.20;;;;;;;;;;5057594;28;20199;-40
2022/11/22 06:48:42;;;;;;;43.60;19.83;;;;;;;;;;5057210;28;20212;-40
2022/11/22 06:51:21;;;;;;;42.83;19.63;;;;;;;;;;5057194;28;20207;-41
2022/11/22 06:53:48;;;;;;;47.40;24.97;;;;;;;;;;5057078;28;20239;-39
2022/11/22 06:56:25;;;;;;;45.47;23.60;;;;;;;;;;5057390;28;20262;-40
2022/11/22 06:58:52;;;;;;;43.77;20.77;;;;;;;;;;5056739;28;20190;-39
2022/11/22 07:01:20;;;;;;;41.73;20.50;;;;;;;;;;5056684;28;20220;-40
2022/11/22 07:03:48;;;;;;;38.57;17.93;;;;;;;;;;5056278;28;20269;-40
2022/11/22 07:06:17;;;;;;;39.03;18.90;;;;;;;;;;5056154;28;20652;-39
2022/11/22 07:08:44;;;;;;;44.00;20.33;;;;;;;;;;5056524;28;20238;-39
2022/11/22 07:11:20;;;;;;;45.17;21.63;;;;;;;;;;5056478;28;20207;-41
2022/11/22 07:13:48;;;;;;;42.47;20.43;;;;;;;;;;5056683;28;20222;-40
2022/11/22 07:16:17;;;;;;;48.60;21.10;;;;;;;;;;5056309;28;20204;-40
2022/11/22 07:18:44;;;;;;;45.27;21.00;;;;;;;;;;5056574;28;20285;-40
2022/11/22 07:21:20;;;;;;;53.37;23.00;;;;;;;;;;5056268;28;20314;-40
2022/11/22 07:23:49;;;;;;;130.87;86.23;;;;;;;;;;5056375;28;20231;-40
2022/11/22 07:26:17;;;;;;;50.63;28.53;;;;;;;;;;5056343;28;20238;-40
2022/11/22 07:28:44;;;;;;;51.10;24.17;;;;;;;;;;5056409;28;20211;-39
2022/11/22 07:31:12;;;;;;;51.67;22.10;;;;;;;;;;5056176;28;20641;-40
2022/11/22 07:33:41;;;;;;;43.87;21.83;;;;;;;;;;5056330;28;20200;-40
2022/11/22 07:36:12;;;;;;;66.27;33.37;;;;;;;;;;5056286;28;20203;-40
2022/11/22 07:38:39;;;;;;;137.47;67.03;;;;;;;;;;5055947;28;20223;-41
2022/11/22 07:41:07;;;;;;;446.03;257.03;;;;;;;;;;5054212;28;20234;-40
2022/11/22 07:43:34;;;;;;;110.13;62.97;;;;;;;;;;5055243;28;20218;-39
2022/11/22 07:46:04;;;;;;;55.23;25.83;;;;;;;;;;5056507;28;20532;-40
2022/11/22 07:48:31;;;;;;;56.70;25.90;;;;;;;;;;5056110;28;20216;-39
2022/11/22 07:51:05;;;;;;;121.00;51.33;;;;;;;;;;5056002;28;20215;-40
2022/11/22 07:53:33;;;;;;;73.13;31.80;;;;;;;;;;5056094;28;20184;-40
2022/11/22 07:56:02;;;;;;;80.40;54.10;;;;;;;;;;5055962;28;20220;-40
2022/11/22 07:58:29;;;;;;;73.30;34.83;;;;;;;;;;5055831;28;20196;-39
2022/11/22 08:00:56;;;;;;;100.53;35.47;;;;;;;;;;5056196;28;20346;-40
2022/11/22 08:03:23;;;;;;;121.37;37.03;;;;;;;;;;5055576;28;20242;-41
2022/11/22 08:05:59;;;;;;;137.53;38.03;;;;;;;;;;5055552;28;20235;-40
2022/11/22 08:08:26;;;;;;;103.57;36.63;;;;;;;;;;5055526;28;20565;-40
2022/11/22 08:10:53;;;;;;;60.80;23.80;;;;;;;;;;5055946;28;20211;-40
2022/11/22 08:13:21;;;;;;;57.97;23.77;;;;;;;;;;5055591;28;20200;-39
2022/11/22 08:15:48;;;;;;;47.73;22.43;;;;;;;;;;5055516;28;20207;-40
2022/11/22 08:18:15;;;;;;;53.13;23.03;;;;;;;;;;5055392;28;20625;-40
2022/11/22 08:20:42;;;;;;;49.63;20.23;;;;;;;;;;5055052;28;20239;-40
2022/11/22 08:23:09;;;;;;;129.83;47.30;;;;;;;;;;5054716;28;20196;-40
2022/11/22 08:25:36;;;;;;;197.20;70.47;;;;;;;;;;5054891;28;20207;-40
2022/11/22 08:28:03;;;;;;;102.20;46.23;;;;;;;;;;5055937;28;20295;-40
2022/11/22 08:30:30;;;;;;;86.43;37.80;;;;;;;;;;5055401;28;20207;-40
2022/11/22 08:32:57;;;;;;;50.13;24.23;;;;;;;;;;5055102;28;20291;-40
2022/11/22 08:35:24;;;;;;;73.07;26.77;;;;;;;;;;5055286;28;20200;-40
2022/11/22 08:37:56;;;;;;;55.73;25.83;;;;;;;;;;5055189;28;20337;-40
2022/11/22 08:40:24;;;;;;;62.40;25.87;;;;;;;;;;5055693;28;20231;-42
2022/11/22 08:42:53;;;;;;;55.50;26.00;;;;;;;;;;5054857;28;20242;-41
2022/11/22 08:45:21;;;;;;;49.57;22.87;;;;;;;;;;5055381;28;20208;-40
2022/11/22 08:47:47;;;;;;;35.20;18.00;;;;;;;;;;5054915;28;20199;-40
2022/11/22 08:50:17;;;;;;;46.43;21.87;;;;;;;;;;5054767;28;20231;-40
2022/11/22 08:52:43;;;;;;;143.73;49.57;;;;;;;;;;5054669;28;20283;-40
2022/11/22 08:55:10;;;;;;;99.20;40.70;;;;;;;;;;5055494;28;20208;-40
2022/11/22 08:57:37;;;;;;;54.97;25.43;;;;;;;;;;5054944;28;20200;-40
2022/11/22 09:00:05;;;;;;;47.60;22.00;;;;;;;;;;5054523;28;20227;-40
2022/11/22 09:02:32;;;;;;;46.57;23.20;;;;;;;;;;5054701;28;20200;-41
2022/11/22 09:04:59;;;;;;;40.77;20.37;;;;;;;;;;5054800;28;20278;-40
2022/11/22 09:07:27;;;;;;;148.53;46.13;;;;;;;;;;5054916;28;20196;-40
2022/11/22 09:10:14;;;;;;;71.03;29.20;;;;;;;;;;5055138;28;20234;-40
2022/11/22 09:12:45;;;;;;;56.43;26.37;;;;;;;;;;5054672;28;20200;-40
2022/11/22 09:15:12;;;;;;;70.40;29.77;;;;;;;;;;5054599;28;20257;-40
2022/11/22 09:17:39;;;;;;;59.30;28.43;;;;;;;;;;5054505;28;20204;-40
2022/11/22 09:20:07;;;;;;;50.80;23.93;;;;;;;;;;5054673;28;20227;-40
2022/11/22 09:22:34;;;;;;;45.83;22.83;;;;;;;;;;5054695;28;20203;-40
2022/11/22 09:25:03;;;;;;;43.43;20.73;;;;;;;;;;5054439;28;20262;-40
2022/11/22 09:27:30;;;;;;;54.83;24.70;;;;;;;;;;5053978;28;20647;-40
2022/11/22 09:29:58;;;;;;;69.70;32.63;;;;;;;;;;5058514;28;20204;-40
2022/11/22 09:32:24;;;;;;;230.53;157.13;;;;;;;;;;5058627;28;20303;-40
2022/11/22 09:34:59;;;;;;;99.17;60.93;;;;;;;;;;5058397;28;20217;-40
2022/11/22 09:37:26;;;;;;;67.53;32.30;;;;;;;;;;5058265;28;20227;-40
2022/11/22 09:39:53;;;;;;;50.67;24.33;;;;;;;;;;5058498;28;20208;-40
2022/11/22 09:42:34;;;;;;;80.77;30.63;;;;;;;;;;5058207;28;20208;-40
2022/11/22 09:45:23;;;;;;;55.73;24.67;;;;;;;;;;5057571;28;20211;-40
2022/11/22 09:48:19;;;;;;;43.73;21.80;;;;;;;;;;5058353;28;20262;-40
2022/11/22 09:50:53;;;;;;;48.83;22.27;;;;;;;;;;5057923;28;20204;-40
2022/11/22 09:53:36;;;;;;;59.00;24.73;;;;;;;;;;5057519;28;20210;-40
2022/11/22 09:56:09;;;;;;;81.00;39.07;;;;;;;;;;5057527;28;20196;-40
2022/11/22 09:58:40;;;;;;;79.63;35.50;;;;;;;;;;5057138;28;20211;-40
2022/11/22 10:01:14;;;;;;;70.33;33.23;;;;;;;;;;5057942;28;20228;-40
2022/11/22 10:03:47;;;;;;;75.43;35.73;;;;;;;;;;5057881;28;20713;-40
2022/11/22 10:06:20;;;;;;;93.37;41.10;;;;;;;;;;5058527;28;20188;-39
2022/11/22 10:09:21;;;;;;;81.20;36.03;;;;;;;;;;5057344;28;20285;-40
2022/11/22 10:11:54;;;;;;;52.57;24.73;;;;;;;;;;5057596;28;20632;-40
2022/11/22 10:14:46;;;;;;;47.80;23.30;;;;;;;;;;5056851;28;20219;-40
2022/11/22 10:17:47;;;;;;;58.60;28.23;;;;;;;;;;5057810;28;20208;-40
2022/11/22 10:20:21;;;;;;;49.43;23.03;;;;;;;;;;5057670;28;20231;-40
2022/11/22 10:22:49;;;;;;;50.83;23.87;;;;;;;;;;5053613;28;20526;-40
2022/11/22 10:25:21;;;;;;;51.97;24.17;;;;;;;;;;5036624;28;20626;-40
2022/11/22 10:28:09;;;;;;;77.47;35.87;;;;;;;;;;5036827;28;20204;-40
2022/11/22 10:30:40;;;;;;;65.07;30.50;;;;;;;;;;5038010;28;20226;-41
2022/11/22 10:33:38;;;;;;;71.57;34.33;;;;;;;;;;5042757;28;20517;-40
2022/11/22 10:36:33;;;;;;;86.67;39.03;;;;;;;;;;5040638;28;20283;-40
2022/11/22 10:39:18;;;;;;;47.40;22.53;;;;;;;;;;5036325;28;20545;-40
2022/11/22 10:41:53;;;;;;;64.57;30.17;;;;;;;;;;5037040;28;20646;-41
2022/11/22 10:44:26;;;;;;;52.23;25.20;;;;;;;;;;5036699;28;20197;-40
2022/11/22 10:47:08;;;;;;;58.03;26.00;;;;;;;;;;5036981;28;20197;-40
2022/11/22 10:50:12;;;;;;;49.70;24.37;;;;;;;;;;5037595;28;20209;-39
2022/11/22 10:52:45;;;;;;;115.17;38.30;;;;;;;;;;5033755;28;20591;-40
2022/11/22 10:55:21;;;;;;;68.23;28.40;;;;;;;;;;5037068;28;20193;-40
2022/11/22 10:57:58;;;;;;;76.77;35.33;;;;;;;;;;5037175;28;20231;-40
2022/11/22 11:00:28;;;;;;;63.33;30.90;;;;;;;;;;5036184;28;20228;-40
2022/11/22 11:03:02;;;;;;;104.77;46.40;;;;;;;;;;5036262;28;20205;-40
2022/11/22 11:05:34;;;;;;;52.70;26.97;;;;;;;;;;5036044;28;20603;-40
2022/11/22 11:08:01;;;;;;;66.50;33.50;;;;;;;;;;5035837;28;20230;-40
2022/11/22 11:10:48;;;;;;;49.70;23.57;;;;;;;;;;5036733;28;20219;-40
2022/11/22 11:13:21;;;;;;;52.93;23.70;;;;;;;;;;5035952;28;20204;-40
2022/11/22 11:15:59;;;;;;;52.53;26.03;;;;;;;;;;5036138;28;20233;-40
2022/11/22 11:18:31;;;;;;;67.30;30.87;;;;;;;;;;5035927;28;20502;-40
2022/11/22 11:20:58;;;;;;;47.13;23.40;;;;;;;;;;5036842;28;20262;-40
2022/11/22 11:23:25;;;;;;;159.50;67.87;;;;;;;;;;5036554;28;20204;-40
2022/11/22 11:25:52;;;;;;;220.13;95.07;;;;;;;;;;5036522;28;20208;-40
2022/11/22 11:28:21;;;;;;;125.07;55.40;;;;;;;;;;5036318;28;20630;-41
2022/11/22 11:30:52;;;;;;;115.17;42.83;;;;;;;;;;5036340;28;20205;-40
2022/11/22 11:33:24;;;;;;;72.23;29.70;;;;;;;;;;5036182;28;20202;-40
2022/11/22 11:35:55;;;;;;;116.33;51.63;;;;;;;;;;5036839;28;20215;-41
2022/11/22 11:38:30;;;;;;;128.53;53.90;;;;;;;;;;5036099;28;20668;-40
2022/11/22 11:41:19;;;;;;;119.03;59.37;;;;;;;;;;5036285;28;20216;-40
2022/11/22 11:43:46;;;;;;;123.13;46.23;;;;;;;;;;5035632;28;20200;-40
2022/11/22 11:46:24;;;;;;;137.90;45.33;;;;;;;;;;5035915;28;20205;-40
2022/11/22 11:48:57;;;;;;;122.30;43.53;;;;;;;;;;5035307;28;20274;-40
2022/11/22 11:51:38;;;;;;;96.17;36.50;;;;;;;;;;5034578;28;20216;-41
2022/11/22 11:54:10;;;;;;;345.27;110.73;;;;;;;;;;5035687;28;20202;-40
2022/11/22 11:56:43;;;;;;;230.90;80.70;;;;;;;;;;5035842;28;20209;-41
2022/11/22 11:59:20;;;;;;;153.23;52.10;;;;;;;;;;5035977;28;20201;-40
2022/11/22 12:01:51;;;;;;;86.13;34.57;;;;;;;;;;5034799;28;20224;-40
2022/11/22 12:04:21;;;;;;;248.47;81.27;;;;;;;;;;5036641;28;20184;-40
2022/11/22 12:06:57;;;;;;;105.50;47.03;;;;;;;;;;5035410;28;20200;-40
2022/11/22 12:09:42;;;;;;;266.67;81.77;;;;;;;;;;5035673;28;20286;-40
2022/11/22 12:12:31;;;;;;;274.40;82.57;;;;;;;;;;5035475;28;20243;-40
2022/11/22 12:15:21;;;;;;;162.73;64.83;;;;;;;;;;5034976;28;20208;-39
2022/11/22 12:17:54;;;;;;;104.27;40.20;;;;;;;;;;5034529;28;20204;-40
2022/11/22 12:20:25;;;;;;;159.03;59.37;;;;;;;;;;5035570;28;20231;-40
2022/11/22 12:23:17;;;;;;;164.53;65.80;;;;;;;;;;5034303;28;20669;-40
2022/11/22 12:25:44;;;;;;;70.63;33.30;;;;;;;;;;5035436;28;20219;-40
2022/11/22 12:28:17;;;;;;;96.60;42.97;;;;;;;;;;5034866;28;20204;-39
2022/11/22 12:30:45;;;;;;;98.83;45.63;;;;;;;;;;5035644;28;20280;-39
2022/11/22 12:33:24;;;;;;;119.90;56.13;;;;;;;;;;5034439;28;20209;-39
2022/11/22 12:35:52;;;;;;;126.90;59.60;;;;;;;;;;5035472;28;20220;-39
2022/11/22 12:38:24;;;;;;;55.33;25.33;;;;;;;;;;5034508;28;20201;-40
2022/11/22 12:40:54;;;;;;;51.13;24.87;;;;;;;;;;5034123;28;20243;-40
2022/11/22 12:43:43;;;;;;;51.93;23.67;;;;;;;;;;5034311;28;20261;-40
2022/11/22 12:46:14;;;;;;;51.03;23.80;;;;;;;;;;5040337;28;20203;-39
2022/11/22 12:48:45;;;;;;;55.60;26.53;;;;;;;;;;5042394;28;20204;-42
2022/11/22 12:51:22;;;;;;;68.83;30.80;;;;;;;;;;5051390;28;20286;-45
2022/11/22 12:53:50;;;;;;;51.37;25.17;;;;;;;;;;5054591;28;20191;-42
2022/11/22 12:56:20;;;;;;;114.27;46.20;;;;;;;;;;5053452;28;20204;-46
2022/11/22 12:59:10;;;;;;;179.40;65.13;;;;;;;;;;5050076;28;20257;-44
2022/11/22 13:01:49;;;;;;;164.80;60.83;;;;;;;;;;5054485;28;20307;-43
2022/11/22 13:04:41;;;;;;;173.50;64.53;;;;;;;;;;5054014;28;20188;-43
2022/11/22 13:07:32;;;;;;;67.77;32.23;;;;;;;;;;5054458;28;20524;-43
2022/11/22 13:10:07;;;;;;;49.97;24.87;;;;;;;;;;5050893;28;20286;-43
2022/11/22 13:12:37;;;;;;;46.07;22.53;;;;;;;;;;5053855;28;20278;-43
2022/11/22 13:15:05;;;;;;;45.57;22.50;;;;;;;;;;5054238;28;20215;-41
2022/11/22 13:17:33;;;;;;;48.60;23.17;;;;;;;;;;5054456;28;20216;-41
2022/11/22 13:20:07;;;;;;;45.87;22.53;;;;;;;;;;5037806;28;20192;-40
2022/11/22 13:22:38;;;;;;;49.20;23.27;;;;;;;;;;5034635;28;20221;-40
2022/11/22 13:25:14;;;;;;;46.07;21.60;;;;;;;;;;5045985;28;20189;-42
2022/11/22 13:27:44;;;;;;;45.07;22.57;;;;;;;;;;5054622;28;20192;-42
2022/11/22 13:30:21;;;;;;;39.87;20.40;;;;;;;;;;5054113;28;20246;-42
2022/11/22 13:32:53;;;;;;;45.00;21.40;;;;;;;;;;5053524;28;20275;-42
2022/11/22 13:35:35;;;;;;;45.00;22.33;;;;;;;;;;5053144;28;20200;-42
2022/11/22 13:38:04;;;;;;;44.93;21.33;;;;;;;;;;5054752;28;20198;-42
2022/11/22 13:40:34;;;;;;;44.40;22.30;;;;;;;;;;5053607;28;20247;-42
2022/11/22 13:43:13;;;;;;;50.73;24.07;;;;;;;;;;5053026;28;20219;-43
2022/11/22 13:45:57;;;;;;;47.90;22.87;;;;;;;;;;5052868;28;20632;-43
2022/11/22 13:48:39;;;;;;;58.20;28.90;;;;;;;;;;5053324;28;20655;-43
2022/11/22 13:51:13;;;;;;;48.50;23.77;;;;;;;;;;5053565;28;20203;-42
2022/11/22 13:53:42;;;;;;;42.00;21.67;;;;;;;;;;5053914;28;20254;-42
2022/11/22 13:56:38;;;;;;;46.47;21.17;;;;;;;;;;5054080;28;20231;-42
2022/11/22 13:59:17;;;;;;;46.33;21.70;;;;;;;;;;5033537;28;20236;-43
2022/11/22 14:01:44;;;;;;;46.57;23.17;;;;;;;;;;5053180;28;20246;-43
2022/11/22 14:04:14;;;;;;;145.00;44.23;;;;;;;;;;5051796;28;20281;-42
2022/11/22 14:06:52;;;;;;;49.80;22.93;;;;;;;;;;5052945;28;20228;-42
2022/11/22 14:09:44;;;;;;;45.77;22.10;;;;;;;;;;5052312;28;20308;-42
2022/11/22 14:12:26;;;;;;;49.90;24.57;;;;;;;;;;5051940;28;20230;-47
2022/11/22 14:15:18;;;;;;;48.17;23.53;;;;;;;;;;5055516;28;20664;-43
2022/11/22 14:18:20;;;;;;;51.03;23.57;;;;;;;;;;5055969;28;20219;-42
2022/11/22 14:21:06;;;;;;;95.33;31.47;;;;;;;;;;5035500;28;20219;-44
2022/11/22 14:23:55;;;;;;;55.00;24.67;;;;;;;;;;5055245;28;20219;-43
2022/11/22 14:26:44;;;;;;;52.33;24.93;;;;;;;;;;5053821;28;20220;-43
2022/11/22 14:29:24;;;;;;;46.30;23.93;;;;;;;;;;5055637;28;20251;-44
2022/11/22 14:31:59;;;;;;;46.00;23.47;;;;;;;;;;5054645;28;20215;-41
2022/11/22 14:34:28;;;;;;;112.80;38.77;;;;;;;;;;5054997;28;20266;-41
2022/11/22 14:37:17;;;;;;;86.70;34.23;;;;;;;;;;5056408;28;20285;-43
2022/11/22 14:39:43;;;;;;;47.73;22.87;;;;;;;;;;5055049;28;20307;-42
2022/11/22 14:42:45;;;;;;;48.50;22.90;;;;;;;;;;5055475;28;20562;-42
2022/11/22 14:45:18;;;;;;;52.63;24.40;;;;;;;;;;5036088;28;20549;-42
2022/11/22 14:47:52;;;;;;;53.30;22.43;;;;;;;;;;5055607;28;20296;-42
2022/11/22 14:50:44;;;;;;;50.47;23.80;;;;;;;;;;5055107;28;20220;-45
2022/11/22 14:53:15;;;;;;;48.80;23.17;;;;;;;;;;5054857;28;20735;-40